sensor_id;sensor_type;location;lat;lon;timestamp;pressure;altitude;pressure_sealevel;temperature;humidity
83557;BME280;73523;55.740;13.276;2024-03-06T00:01:52;101459.25;;;23.48;31.09
83557;BME280;73523;55.740;13.276;2024-03-06T00:04:18;101469.22;;;23.49;31.40
83557;BME280;73523;55.740;13.276;2024-03-06T00:06:43;101470.56;;;23.46;31.62
83557;BME280;73523;55.740;13.276;2024-03-06T00:09:08;101469.97;;;23.44;31.26
83557;BME280;73523;55.740;13.276;2024-03-06T00:11:34;101465.78;;;23.42;31.60
83557;BME280;73523;55.740;13.276;2024-03-06T00:14:02;101473.25;;;23.41;31.29
83557;BME280;73523;55.740;13.276;2024-03-06T00:16:28;101467.72;;;23.41;31.44
83557;BME280;73523;55.740;13.276;2024-03-06T00:18:53;101473.25;;;23.41;31.25
83557;BME280;73523;55.740;13.276;2024-03-06T00:21:19;101470.19;;;23.43;31.29
83557;BME280;73523;55.740;13.276;2024-03-06T00:23:44;101470.47;;;23.41;31.27
83557;BME280;73523;55.740;13.276;2024-03-06T00:26:11;101478.25;;;23.44;31.13
83557;BME280;73523;55.740;13.276;2024-03-06T00:28:38;101481.03;;;23.44;30.92
83557;BME280;73523;55.740;13.276;2024-03-06T00:31:05;101475.50;;;23.44;30.66
83557;BME280;73523;55.740;13.276;2024-03-06T00:33:30;101475.25;;;23.46;30.64
83557;BME280;73523;55.740;13.276;2024-03-06T00:35:55;101478.25;;;23.44;30.86
83557;BME280;73523;55.740;13.276;2024-03-06T00:38:21;101475.84;;;23.48;30.97
83557;BME280;73523;55.740;13.276;2024-03-06T00:40:48;101477.53;;;23.49;30.88
83557;BME280;73523;55.740;13.276;2024-03-06T00:43:14;101480.94;;;23.51;30.50
83557;BME280;73523;55.740;13.276;2024-03-06T00:45:39;101484.28;;;23.53;30.45
83557;BME280;73523;55.740;13.276;2024-03-06T00:48:05;101486.22;;;23.52;31.02
83557;BME280;73523;55.740;13.276;2024-03-06T00:50:30;101487.31;;;23.51;30.93
83557;BME280;73523;55.740;13.276;2024-03-06T00:52:56;101487.50;;;23.50;30.95
83557;BME280;73523;55.740;13.276;2024-03-06T00:55:21;101494.13;;;23.49;30.66
83557;BME280;73523;55.740;13.276;2024-03-06T00:57:46;101496.69;;;23.50;30.73
83557;BME280;73523;55.740;13.276;2024-03-06T01:00:12;101496.31;;;23.47;30.61
83557;BME280;73523;55.740;13.276;2024-03-06T01:02:38;101493.53;;;23.47;30.74
83557;BME280;73523;55.740;13.276;2024-03-06T01:05:04;101502.69;;;23.47;30.59
83557;BME280;73523;55.740;13.276;2024-03-06T01:07:30;101496.31;;;23.47;30.63
83557;BME280;73523;55.740;13.276;2024-03-06T01:09:56;101502.06;;;23.45;30.71
83557;BME280;73523;55.740;13.276;2024-03-06T01:12:23;101502.06;;;23.45;30.75
83557;BME280;73523;55.740;13.276;2024-03-06T01:14:48;101500.16;;;23.46;30.59
83557;BME280;73523;55.740;13.276;2024-03-06T01:17:13;101502.06;;;23.45;30.66
83557;BME280;73523;55.740;13.276;2024-03-06T01:19:39;101498.72;;;23.43;30.98
83557;BME280;73523;55.740;13.276;2024-03-06T01:22:04;101497.63;;;23.44;30.76
83557;BME280;73523;55.740;13.276;2024-03-06T01:24:29;101501.47;;;23.43;30.82
83557;BME280;73523;55.740;13.276;2024-03-06T01:26:54;101505.09;;;23.44;31.06
83557;BME280;73523;55.740;13.276;2024-03-06T01:29:45;101511.97;;;23.41;30.92
83557;BME280;73523;55.740;13.276;2024-03-06T01:32:10;101511.13;;;23.41;30.84
83557;BME280;73523;55.740;13.276;2024-03-06T01:34:35;101518.34;;;23.42;30.91
83557;BME280;73523;55.740;13.276;2024-03-06T01:37:01;101516.16;;;23.44;30.79
83557;BME280;73523;55.740;13.276;2024-03-06T01:39:26;101520.38;;;23.46;30.81
83557;BME280;73523;55.740;13.276;2024-03-06T01:41:51;101523.97;;;23.47;30.60
83557;BME280;73523;55.740;13.276;2024-03-06T01:44:17;101521.59;;;23.50;30.74
83557;BME280;73523;55.740;13.276;2024-03-06T01:46:44;101524.13;;;23.52;30.61
83557;BME280;73523;55.740;13.276;2024-03-06T01:49:13;101524.13;;;23.52;30.47
83557;BME280;73523;55.740;13.276;2024-03-06T01:51:45;101532.19;;;23.53;30.60
83557;BME280;73523;55.740;13.276;2024-03-06T01:54:13;101529.97;;;23.55;30.24
83557;BME280;73523;55.740;13.276;2024-03-06T01:56:44;101535.88;;;23.59;30.38
83557;BME280;73523;55.740;13.276;2024-03-06T01:59:10;101537.56;;;23.60;30.47
83557;BME280;73523;55.740;13.276;2024-03-06T02:01:36;101547.53;;;23.61;30.16
83557;BME280;73523;55.740;13.276;2024-03-06T02:04:01;101528.56;;;23.53;30.32
83557;BME280;73523;55.740;13.276;2024-03-06T02:06:28;101553.56;;;23.58;30.56
83557;BME280;73523;55.740;13.276;2024-03-06T02:08:53;101545.25;;;23.58;30.62
83557;BME280;73523;55.740;13.276;2024-03-06T02:11:18;101546.34;;;23.57;30.39
83557;BME280;73523;55.740;13.276;2024-03-06T02:13:44;101550.47;;;23.54;30.40
83557;BME280;73523;55.740;13.276;2024-03-06T02:16:10;101560.94;;;23.52;30.38
83557;BME280;73523;55.740;13.276;2024-03-06T02:18:35;101557.09;;;23.53;30.25
83557;BME280;73523;55.740;13.276;2024-03-06T02:21:02;101567.31;;;23.53;30.35
83557;BME280;73523;55.740;13.276;2024-03-06T02:23:27;101554.56;;;23.52;30.29
83557;BME280;73523;55.740;13.276;2024-03-06T02:25:52;101562.88;;;23.52;30.41
83557;BME280;73523;55.740;13.276;2024-03-06T02:28:18;101565.00;;;23.50;30.67
83557;BME280;73523;55.740;13.276;2024-03-06T02:30:44;101562.88;;;23.52;30.72
83557;BME280;73523;55.740;13.276;2024-03-06T02:33:09;101575.84;;;23.51;30.40
83557;BME280;73523;55.740;13.276;2024-03-06T02:35:37;101578.38;;;23.53;30.67
83557;BME280;73523;55.740;13.276;2024-03-06T02:38:04;101572.00;;;23.52;30.35
83557;BME280;73523;55.740;13.276;2024-03-06T02:40:31;101557.78;;;23.49;30.52
83557;BME280;73523;55.740;13.276;2024-03-06T02:42:56;101557.56;;;23.50;30.24
83557;BME280;73523;55.740;13.276;2024-03-06T02:45:21;101563.94;;;23.51;30.55
83557;BME280;73523;55.740;13.276;2024-03-06T02:47:47;101566.47;;;23.52;30.53
83557;BME280;73523;55.740;13.276;2024-03-06T02:50:12;101557.09;;;23.53;30.15
83557;BME280;73523;55.740;13.276;2024-03-06T02:52:39;101561.53;;;23.54;30.11
83557;BME280;73523;55.740;13.276;2024-03-06T02:55:05;101563.47;;;23.54;30.39
83557;BME280;73523;55.740;13.276;2024-03-06T02:57:30;101561.25;;;23.56;30.29
83557;BME280;73523;55.740;13.276;2024-03-06T02:59:57;101565.47;;;23.58;30.28
83557;BME280;73523;55.740;13.276;2024-03-06T03:02:22;101565.47;;;23.58;30.10
83557;BME280;73523;55.740;13.276;2024-03-06T03:04:49;101574.13;;;23.62;30.14
83557;BME280;73523;55.740;13.276;2024-03-06T03:07:14;101567.75;;;23.61;30.19
83557;BME280;73523;55.740;13.276;2024-03-06T03:09:39;101571.72;;;23.65;29.97
83557;BME280;73523;55.740;13.276;2024-03-06T03:12:05;101573.41;;;23.66;30.00
83557;BME280;73523;55.740;13.276;2024-03-06T03:14:30;101568.69;;;23.67;29.91
83557;BME280;73523;55.740;13.276;2024-03-06T03:16:56;101571.47;;;23.67;30.09
83557;BME280;73523;55.740;13.276;2024-03-06T03:19:22;101577.84;;;23.67;30.02
83557;BME280;73523;55.740;13.276;2024-03-06T03:21:47;101579.75;;;23.67;29.98
83557;BME280;73523;55.740;13.276;2024-03-06T03:24:12;101583.66;;;23.66;29.88
83557;BME280;73523;55.740;13.276;2024-03-06T03:26:37;101586.66;;;23.64;30.20
83557;BME280;73523;55.740;13.276;2024-03-06T03:29:03;101588.81;;;23.62;30.45
83557;BME280;73523;55.740;13.276;2024-03-06T03:31:28;101597.38;;;23.61;29.98
83557;BME280;73523;55.740;13.276;2024-03-06T03:33:54;101583.78;;;23.59;30.02
83557;BME280;73523;55.740;13.276;2024-03-06T03:36:19;101591.22;;;23.59;30.05
83557;BME280;73523;55.740;13.276;2024-03-06T03:38:44;101590.38;;;23.58;30.01
83557;BME280;73523;55.740;13.276;2024-03-06T03:41:11;101585.09;;;23.57;30.10
83557;BME280;73523;55.740;13.276;2024-03-06T03:43:42;101593.91;;;23.54;30.10
83557;BME280;73523;55.740;13.276;2024-03-06T03:46:07;101594.75;;;23.54;30.16
83557;BME280;73523;55.740;13.276;2024-03-06T03:48:34;101590.88;;;23.55;30.33
83557;BME280;73523;55.740;13.276;2024-03-06T03:51:02;101592.56;;;23.56;30.36
83557;BME280;73523;55.740;13.276;2024-03-06T03:53:34;101598.69;;;23.58;30.31
83557;BME280;73523;55.740;13.276;2024-03-06T03:56:00;101596.75;;;23.59;30.28
83557;BME280;73523;55.740;13.276;2024-03-06T03:58:26;101595.69;;;23.60;30.16
83557;BME280;73523;55.740;13.276;2024-03-06T04:00:51;101600.72;;;23.63;30.15
83557;BME280;73523;55.740;13.276;2024-03-06T04:03:19;101598.22;;;23.61;29.85
83557;BME280;73523;55.740;13.276;2024-03-06T04:05:46;101600.72;;;23.63;30.20
83557;BME280;73523;55.740;13.276;2024-03-06T04:08:11;101602.41;;;23.64;30.21
83557;BME280;73523;55.740;13.276;2024-03-06T04:10:37;101605.19;;;23.64;29.87
83557;BME280;73523;55.740;13.276;2024-03-06T04:13:02;101616.03;;;23.65;29.84
83557;BME280;73523;55.740;13.276;2024-03-06T04:15:28;101617.94;;;23.65;29.70
83557;BME280;73523;55.740;13.276;2024-03-06T04:17:53;101616.88;;;23.66;30.04
83557;BME280;73523;55.740;13.276;2024-03-06T04:20:19;101610.22;;;23.67;30.19
83557;BME280;73523;55.740;13.276;2024-03-06T04:22:44;101615.19;;;23.65;30.13
83557;BME280;73523;55.740;13.276;2024-03-06T04:25:11;101616.59;;;23.67;29.97
83557;BME280;73523;55.740;13.276;2024-03-06T04:27:37;101618.50;;;23.67;29.84
83557;BME280;73523;55.740;13.276;2024-03-06T04:30:03;101626.00;;;23.66;30.07
83557;BME280;73523;55.740;13.276;2024-03-06T04:32:29;101621.56;;;23.65;29.98
83557;BME280;73523;55.740;13.276;2024-03-06T04:34:54;101628.78;;;23.66;29.90
83557;BME280;73523;55.740;13.276;2024-03-06T04:37:21;101641.50;;;23.67;29.97
83557;BME280;73523;55.740;13.276;2024-03-06T04:39:46;101635.97;;;23.67;29.67
83557;BME280;73523;55.740;13.276;2024-03-06T04:42:12;101637.66;;;23.68;30.00
83557;BME280;73523;55.740;13.276;2024-03-06T04:44:37;101634.03;;;23.68;29.92
83557;BME280;73523;55.740;13.276;2024-03-06T04:47:03;101635.41;;;23.65;30.21
83557;BME280;73523;55.740;13.276;2024-03-06T04:49:32;101637.66;;;23.68;29.76
83557;BME280;73523;55.740;13.276;2024-03-06T04:51:58;101638.72;;;23.67;30.05
83557;BME280;73523;55.740;13.276;2024-03-06T04:54:23;101643.44;;;23.67;29.80
83557;BME280;73523;55.740;13.276;2024-03-06T04:56:48;101645.38;;;23.66;30.05
83557;BME280;73523;55.740;13.276;2024-03-06T04:59:14;101650.06;;;23.66;30.02
83557;BME280;73523;55.740;13.276;2024-03-06T05:01:40;101648.41;;;23.65;30.23
83557;BME280;73523;55.740;13.276;2024-03-06T05:04:05;101653.09;;;23.64;30.48
83557;BME280;73523;55.740;13.276;2024-03-06T05:06:32;101656.69;;;23.65;30.65
83557;BME280;73523;55.740;13.276;2024-03-06T05:08:57;101652.00;;;23.65;31.12
83557;BME280;73523;55.740;13.276;2024-03-06T05:11:22;101664.16;;;23.64;30.41
83557;BME280;73523;55.740;13.276;2024-03-06T05:13:48;101665.47;;;23.62;31.27
83557;BME280;73523;55.740;13.276;2024-03-06T05:16:14;101668.72;;;23.59;31.65
83557;BME280;73523;55.740;13.276;2024-03-06T05:18:39;101658.25;;;23.61;30.83
83557;BME280;73523;55.740;13.276;2024-03-06T05:21:04;101668.84;;;23.64;30.14
83557;BME280;73523;55.740;13.276;2024-03-06T05:23:30;101665.56;;;23.67;30.54
83557;BME280;73523;55.740;13.276;2024-03-06T05:25:55;101667.03;;;23.69;30.28
83557;BME280;73523;55.740;13.276;2024-03-06T05:28:20;101674.25;;;23.70;30.47
83557;BME280;73523;55.740;13.276;2024-03-06T05:30:46;101677.25;;;23.69;30.24
83557;BME280;73523;55.740;13.276;2024-03-06T05:33:11;101675.09;;;23.71;30.62
83557;BME280;73523;55.740;13.276;2024-03-06T05:35:37;101674.25;;;23.70;30.30
83557;BME280;73523;55.740;13.276;2024-03-06T05:38:02;101673.41;;;23.70;30.72
83557;BME280;73523;55.740;13.276;2024-03-06T05:40:28;101676.16;;;23.70;30.28
83557;BME280;73523;55.740;13.276;2024-03-06T05:42:53;101674.00;;;23.72;30.75
83557;BME280;73523;55.740;13.276;2024-03-06T05:45:18;101668.69;;;23.70;30.27
83557;BME280;73523;55.740;13.276;2024-03-06T05:47:44;101683.38;;;23.71;30.48
83557;BME280;73523;55.740;13.276;2024-03-06T05:50:11;101681.22;;;23.73;30.23
83557;BME280;73523;55.740;13.276;2024-03-06T05:52:36;101682.91;;;23.74;30.56
83557;BME280;73523;55.740;13.276;2024-03-06T05:55:02;101684.84;;;23.74;30.44
83557;BME280;73523;55.740;13.276;2024-03-06T05:57:29;101694.22;;;23.73;30.24
83557;BME280;73523;55.740;13.276;2024-03-06T05:59:54;101691.44;;;23.73;30.16
83557;BME280;73523;55.740;13.276;2024-03-06T06:02:19;101691.44;;;23.73;30.53
83557;BME280;73523;55.740;13.276;2024-03-06T06:04:46;101698.91;;;23.72;30.47
83557;BME280;73523;55.740;13.276;2024-03-06T06:07:11;101701.69;;;23.72;30.18
83557;BME280;73523;55.740;13.276;2024-03-06T06:09:36;101713.84;;;23.71;30.41
83557;BME280;73523;55.740;13.276;2024-03-06T06:12:02;101710.22;;;23.70;30.13
83557;BME280;73523;55.740;13.276;2024-03-06T06:14:27;101714.69;;;23.72;30.50
83557;BME280;73523;55.740;13.276;2024-03-06T06:16:54;101725.75;;;23.72;30.56
83557;BME280;73523;55.740;13.276;2024-03-06T06:19:20;101727.44;;;23.73;30.31
83557;BME280;73523;55.740;13.276;2024-03-06T06:21:45;101728.28;;;23.73;30.10
83557;BME280;73523;55.740;13.276;2024-03-06T06:24:12;101725.28;;;23.75;30.37
83557;BME280;73523;55.740;13.276;2024-03-06T06:26:37;101728.88;;;23.75;30.26
83557;BME280;73523;55.740;13.276;2024-03-06T06:29:02;101729.72;;;23.76;30.52
83557;BME280;73523;55.740;13.276;2024-03-06T06:31:28;101728.66;;;23.77;30.22
83557;BME280;73523;55.740;13.276;2024-03-06T06:33:54;101727.56;;;23.78;29.99
83557;BME280;73523;55.740;13.276;2024-03-06T06:36:19;101732.03;;;23.79;30.30
83557;BME280;73523;55.740;13.276;2024-03-06T06:38:46;101737.28;;;23.80;29.86
83557;BME280;73523;55.740;13.276;2024-03-06T06:41:11;101735.59;;;23.79;29.81
83557;BME280;73523;55.740;13.276;2024-03-06T06:43:36;101745.03;;;23.78;30.19
83557;BME280;73523;55.740;13.276;2024-03-06T06:46:02;101748.63;;;23.79;30.21
83557;BME280;73523;55.740;13.276;2024-03-06T06:48:30;101754.19;;;23.79;30.06
83557;BME280;73523;55.740;13.276;2024-03-06T06:50:55;101761.63;;;23.78;30.37
83557;BME280;73523;55.740;13.276;2024-03-06T06:53:20;101759.72;;;23.79;29.84
83557;BME280;73523;55.740;13.276;2024-03-06T06:55:45;101758.25;;;23.76;30.15
83557;BME280;73523;55.740;13.276;2024-03-06T06:58:11;101761.03;;;23.76;29.88
83557;BME280;73523;55.740;13.276;2024-03-06T07:00:36;101760.78;;;23.78;30.34
83557;BME280;73523;55.740;13.276;2024-03-06T07:03:02;101764.66;;;23.77;29.80
83557;BME280;73523;55.740;13.276;2024-03-06T07:05:28;101766.34;;;23.78;29.97
83557;BME280;73523;55.740;13.276;2024-03-06T07:07:53;101764.66;;;23.77;29.95
83557;BME280;73523;55.740;13.276;2024-03-06T07:10:19;101761.88;;;23.77;29.93
83557;BME280;73523;55.740;13.276;2024-03-06T07:12:44;101765.72;;;23.76;30.16
83557;BME280;73523;55.740;13.276;2024-03-06T07:15:09;101772.09;;;23.76;29.86
83557;BME280;73523;55.740;13.276;2024-03-06T07:17:35;101773.19;;;23.75;30.18
83557;BME280;73523;55.740;13.276;2024-03-06T07:20:01;101772.09;;;23.76;29.83
83557;BME280;73523;55.740;13.276;2024-03-06T07:22:26;101775.13;;;23.75;30.35
83557;BME280;73523;55.740;13.276;2024-03-06T07:24:51;101788.13;;;23.74;30.13
83557;BME280;73523;55.740;13.276;2024-03-06T07:27:17;101780.28;;;23.71;30.09
83557;BME280;73523;55.740;13.276;2024-03-06T07:29:43;101777.75;;;23.69;29.89
83557;BME280;73523;55.740;13.276;2024-03-06T07:32:09;101789.19;;;23.73;29.99
83557;BME280;73523;55.740;13.276;2024-03-06T07:34:34;101790.63;;;23.76;29.98
83557;BME280;73523;55.740;13.276;2024-03-06T07:37:00;101788.47;;;23.78;30.17
83557;BME280;73523;55.740;13.276;2024-03-06T07:39:25;101785.72;;;23.78;29.90
83557;BME280;73523;55.740;13.276;2024-03-06T07:41:51;101790.97;;;23.79;30.16
83557;BME280;73523;55.740;13.276;2024-03-06T07:44:16;101794.13;;;23.83;30.04
83557;BME280;73523;55.740;13.276;2024-03-06T07:46:42;101799.66;;;23.83;29.87
83557;BME280;73523;55.740;13.276;2024-03-06T07:49:07;101802.19;;;23.84;29.64
83557;BME280;73523;55.740;13.276;2024-03-06T07:51:33;101807.50;;;23.86;29.89
83557;BME280;73523;55.740;13.276;2024-03-06T07:53:58;101799.78;;;23.88;29.79
83557;BME280;73523;55.740;13.276;2024-03-06T07:56:25;101807.25;;;23.87;29.79
83557;BME280;73523;55.740;13.276;2024-03-06T07:58:50;101810.03;;;23.87;29.71
83557;BME280;73523;55.740;13.276;2024-03-06T08:01:16;101811.09;;;23.86;30.02
83557;BME280;73523;55.740;13.276;2024-03-06T08:03:41;101822.41;;;23.85;30.01
83557;BME280;73523;55.740;13.276;2024-03-06T08:06:08;101829.88;;;23.84;29.90
83557;BME280;73523;55.740;13.276;2024-03-06T08:08:34;101824.56;;;23.83;29.66
83557;BME280;73523;55.740;13.276;2024-03-06T08:10:59;101832.03;;;23.82;30.13
83557;BME280;73523;55.740;13.276;2024-03-06T08:13:25;101837.56;;;23.82;29.83
83557;BME280;73523;55.740;13.276;2024-03-06T08:15:50;101838.91;;;23.80;30.19
83557;BME280;73523;55.740;13.276;2024-03-06T08:18:16;101844.44;;;23.80;30.11
83557;BME280;73523;55.740;13.276;2024-03-06T08:20:41;101854.44;;;23.81;29.88
83557;BME280;73523;55.740;13.276;2024-03-06T08:23:07;101854.44;;;23.81;29.78
83557;BME280;73523;55.740;13.276;2024-03-06T08:25:34;101856.72;;;23.84;29.65
83557;BME280;73523;55.740;13.276;2024-03-06T08:28:00;101856.72;;;23.84;29.84
83557;BME280;73523;55.740;13.276;2024-03-06T08:30:25;101856.97;;;23.82;29.61
83557;BME280;73523;55.740;13.276;2024-03-06T08:32:51;101865.25;;;23.82;29.83
83557;BME280;73523;55.740;13.276;2024-03-06T08:35:16;101862.72;;;23.81;29.98
83557;BME280;73523;55.740;13.276;2024-03-06T08:37:43;101862.50;;;23.82;29.62
83557;BME280;73523;55.740;13.276;2024-03-06T08:40:10;101870.81;;;23.82;29.81
83557;BME280;73523;55.740;13.276;2024-03-06T08:42:42;101879.97;;;23.83;29.98
83557;BME280;73523;55.740;13.276;2024-03-06T08:45:08;101874.41;;;23.83;29.58
83557;BME280;73523;55.740;13.276;2024-03-06T08:47:36;101877.19;;;23.83;29.65
83557;BME280;73523;55.740;13.276;2024-03-06T08:50:02;101879.72;;;23.84;29.86
83557;BME280;73523;55.740;13.276;2024-03-06T08:52:28;101870.19;;;23.80;29.58
83557;BME280;73523;55.740;13.276;2024-03-06T08:54:53;101882.25;;;23.86;29.82
83557;BME280;73523;55.740;13.276;2024-03-06T08:57:18;101882.88;;;23.88;29.48
83557;BME280;73523;55.740;13.276;2024-03-06T08:59:46;101876.47;;;23.87;30.09
83557;BME280;73523;55.740;13.276;2024-03-06T09:02:19;101881.78;;;23.89;29.59
83557;BME280;73523;55.740;13.276;2024-03-06T09:04:45;101887.94;;;23.91;29.46
83557;BME280;73523;55.740;13.276;2024-03-06T09:07:11;101883.47;;;23.90;29.79
83557;BME280;73523;55.740;13.276;2024-03-06T09:09:37;101885.41;;;23.89;29.44
83557;BME280;73523;55.740;13.276;2024-03-06T09:12:06;101896.47;;;23.89;29.42
83557;BME280;73523;55.740;13.276;2024-03-06T09:14:32;101899.25;;;23.89;29.62
83557;BME280;73523;55.740;13.276;2024-03-06T09:16:58;101900.09;;;23.90;29.39
83557;BME280;73523;55.740;13.276;2024-03-06T09:19:23;101900.94;;;23.90;29.62
83557;BME280;73523;55.740;13.276;2024-03-06T09:21:49;101905.63;;;23.90;29.85
83557;BME280;73523;55.740;13.276;2024-03-06T09:24:14;101906.47;;;23.90;29.73
83557;BME280;73523;55.740;13.276;2024-03-06T09:26:39;101905.63;;;23.90;29.44
83557;BME280;73523;55.740;13.276;2024-03-06T09:29:05;101899.25;;;23.89;29.65
83557;BME280;73523;55.740;13.276;2024-03-06T09:31:30;101898.63;;;23.87;29.44
83557;BME280;73523;55.740;13.276;2024-03-06T09:33:56;101903.09;;;23.88;29.64
83557;BME280;73523;55.740;13.276;2024-03-06T09:36:21;101917.53;;;23.90;29.77
83557;BME280;73523;55.740;13.276;2024-03-06T09:38:46;101918.38;;;23.91;29.56
83557;BME280;73523;55.740;13.276;2024-03-06T09:41:11;101921.41;;;23.89;29.41
83557;BME280;73523;55.740;13.276;2024-03-06T09:43:37;101917.16;;;23.87;29.66
83557;BME280;73523;55.740;13.276;2024-03-06T09:46:03;101912.72;;;23.86;29.75
83557;BME280;73523;55.740;13.276;2024-03-06T09:48:29;101920.16;;;23.85;29.47
83557;BME280;73523;55.740;13.276;2024-03-06T09:50:57;101927.41;;;23.86;29.52
83557;BME280;73523;55.740;13.276;2024-03-06T09:53:26;101922.25;;;23.90;29.43
83557;BME280;73523;55.740;13.276;2024-03-06T09:55:52;101930.28;;;23.91;29.35
83557;BME280;73523;55.740;13.276;2024-03-06T09:58:17;101928.63;;;23.90;29.41
83557;BME280;73523;55.740;13.276;2024-03-06T10:00:43;101937.50;;;23.92;29.20
83557;BME280;73523;55.740;13.276;2024-03-06T10:03:09;101943.03;;;23.92;29.26
83557;BME280;73523;55.740;13.276;2024-03-06T10:05:36;101941.97;;;23.93;29.53
83557;BME280;73523;55.740;13.276;2024-03-06T10:08:02;101946.44;;;23.94;29.38
83557;BME280;73523;55.740;13.276;2024-03-06T10:10:29;101948.34;;;23.94;29.64
83557;BME280;73523;55.740;13.276;2024-03-06T10:12:55;101955.81;;;23.93;29.32
83557;BME280;73523;55.740;13.276;2024-03-06T10:15:22;101964.72;;;23.95;29.42
83557;BME280;73523;55.740;13.276;2024-03-06T10:17:48;101968.34;;;23.96;29.57
83557;BME280;73523;55.740;13.276;2024-03-06T10:20:17;101968.34;;;23.96;29.38
83557;BME280;73523;55.740;13.276;2024-03-06T10:22:49;101981.34;;;23.95;29.24
83557;BME280;73523;55.740;13.276;2024-03-06T10:25:20;101977.75;;;23.95;29.69
83557;BME280;73523;55.740;13.276;2024-03-06T10:28:02;101977.13;;;23.93;29.39
83557;BME280;73523;55.740;13.276;2024-03-06T10:30:27;101976.28;;;23.92;29.31
83557;BME280;73523;55.740;13.276;2024-03-06T10:32:53;101971.00;;;23.91;29.71
83557;BME280;73523;55.740;13.276;2024-03-06T10:35:20;101970.16;;;23.90;29.54
83557;BME280;73523;55.740;13.276;2024-03-06T10:37:46;101976.78;;;23.89;29.28
83557;BME280;73523;55.740;13.276;2024-03-06T10:40:14;101974.84;;;23.90;29.59
83557;BME280;73523;55.740;13.276;2024-03-06T10:42:40;101978.47;;;23.90;29.47
83557;BME280;73523;55.740;13.276;2024-03-06T10:45:07;101970.41;;;23.89;29.22
83557;BME280;73523;55.740;13.276;2024-03-06T10:47:39;101967.63;;;23.89;29.28
83557;BME280;73523;55.740;13.276;2024-03-06T10:50:05;101967.88;;;23.87;29.59
83557;BME280;73523;55.740;13.276;2024-03-06T10:52:36;101970.16;;;23.90;29.18
83557;BME280;73523;55.740;13.276;2024-03-06T10:55:03;101973.41;;;23.87;29.58
83557;BME280;73523;55.740;13.276;2024-03-06T10:57:29;101965.09;;;23.87;29.27
83557;BME280;73523;55.740;13.276;2024-03-06T10:59:56;101974.00;;;23.89;29.30
83557;BME280;73523;55.740;13.276;2024-03-06T11:02:24;101990.41;;;23.91;29.50
83557;BME280;73523;55.740;13.276;2024-03-06T11:04:51;101980.97;;;23.92;29.35
83557;BME280;73523;55.740;13.276;2024-03-06T11:07:17;101980.75;;;23.93;29.27
83557;BME280;73523;55.740;13.276;2024-03-06T11:09:42;101980.50;;;23.95;29.18
83557;BME280;73523;55.740;13.276;2024-03-06T11:12:07;101979.44;;;23.96;29.14
83557;BME280;73523;55.740;13.276;2024-03-06T11:14:36;101980.28;;;23.96;29.33
83557;BME280;73523;55.740;13.276;2024-03-06T11:17:08;101973.03;;;23.95;29.48
83557;BME280;73523;55.740;13.276;2024-03-06T11:28:36;101985.19;;;23.94;29.42
83557;BME280;73523;55.740;13.276;2024-03-06T11:31:04;101982.66;;;23.93;28.97
83557;BME280;73523;55.740;13.276;2024-03-06T11:38:38;101984.84;;;23.91;29.13
83557;BME280;73523;55.740;13.276;2024-03-06T11:41:04;101981.25;;;23.90;29.37
83557;BME280;73523;55.740;13.276;2024-03-06T11:43:42;101982.09;;;23.91;29.18
83557;BME280;73523;55.740;13.276;2024-03-06T11:46:08;101985.66;;;23.91;29.46
83557;BME280;73523;55.740;13.276;2024-03-06T11:48:37;101995.09;;;23.90;29.13
83557;BME280;73523;55.740;13.276;2024-03-06T11:51:04;101992.56;;;23.89;29.30
83557;BME280;73523;55.740;13.276;2024-03-06T11:53:30;101982.31;;;23.89;29.11
83557;BME280;73523;55.740;13.276;2024-03-06T11:55:56;101985.09;;;23.89;29.05
83557;BME280;73523;55.740;13.276;2024-03-06T11:58:24;101990.00;;;23.87;29.46
83557;BME280;73523;55.740;13.276;2024-03-06T12:00:50;101994.25;;;23.90;29.47
83557;BME280;73523;55.740;13.276;2024-03-06T12:03:17;101983.63;;;23.87;29.57
83557;BME280;73523;55.740;13.276;2024-03-06T12:05:42;101994.94;;;23.85;29.44
83557;BME280;73523;55.740;13.276;2024-03-06T12:08:09;101989.16;;;23.87;29.15
83557;BME280;73523;55.740;13.276;2024-03-06T12:10:38;101993.88;;;23.86;29.27
83557;BME280;73523;55.740;13.276;2024-03-06T12:13:04;101997.47;;;23.87;29.45
83557;BME280;73523;55.740;13.276;2024-03-06T12:15:30;101998.31;;;23.87;29.49
83557;BME280;73523;55.740;13.276;2024-03-06T12:17:56;101992.78;;;23.87;29.38
83557;BME280;73523;55.740;13.276;2024-03-06T12:20:21;101997.25;;;23.88;29.22
83557;BME280;73523;55.740;13.276;2024-03-06T12:22:50;101987.63;;;23.91;29.39
83557;BME280;73523;55.740;13.276;2024-03-06T12:25:23;101992.91;;;23.92;29.24
83557;BME280;73523;55.740;13.276;2024-03-06T12:27:49;101992.91;;;23.92;29.18
83557;BME280;73523;55.740;13.276;2024-03-06T12:30:21;101993.50;;;23.94;29.37
83557;BME280;73523;55.740;13.276;2024-03-06T12:33:00;101993.50;;;23.94;29.24
83557;BME280;73523;55.740;13.276;2024-03-06T12:35:30;101997.13;;;23.95;29.20
83557;BME280;73523;55.740;13.276;2024-03-06T12:37:56;101989.91;;;23.94;29.11
83557;BME280;73523;55.740;13.276;2024-03-06T12:40:21;101988.81;;;23.95;29.26
83557;BME280;73523;55.740;13.276;2024-03-06T12:42:47;102002.91;;;23.93;29.20
83557;BME280;73523;55.740;13.276;2024-03-06T12:45:14;102005.66;;;23.93;29.50
83557;BME280;73523;55.740;13.276;2024-03-06T12:47:44;102010.34;;;23.93;29.04
83557;BME280;73523;55.740;13.276;2024-03-06T12:50:11;102008.66;;;23.92;29.41